Time;durP1;ratioP1;P1;durP2;ratioP2;P2;SDS_P1;SDS_P2;PMS_P1;PMS_P2;Temp;Humidity;BMP_temperature;BMP_pressure;BME280_temperature;BME280_humidity;BME280_pressure;Samples;Min_cycle;Max_cycle;Signal;HPM_P1;HPM_P2
2021/04/13 00:02:28;;;;;;;10.35;1.95;;;4.60;87.10;;;;;;4999527;28;20053;-74
2021/04/13 00:05:11;;;;;;;4.53;1.20;;;4.60;87.30;;;;;;5059847;28;20018;-74
2021/04/13 00:07:38;;;;;;;6.60;1.45;;;4.60;87.00;;;;;;5001207;28;20030;-73
2021/04/13 00:10:11;;;;;;;4.57;1.42;;;4.50;86.60;;;;;;5010352;28;20006;-73
2021/04/13 00:12:37;;;;;;;4.85;1.00;;;4.50;86.40;;;;;;5021525;28;20010;-73
2021/04/13 00:15:16;;;;;;;5.40;1.10;;;4.50;86.60;;;;;;5013766;28;20197;-73
2021/04/13 00:17:42;;;;;;;7.75;1.20;;;4.50;86.40;;;;;;5033906;28;20084;-74
2021/04/13 00:20:14;;;;;;;5.82;1.15;;;4.50;86.20;;;;;;5008178;28;20018;-74
2021/04/13 00:22:40;;;;;;;6.70;1.20;;;4.40;86.10;;;;;;5028802;28;20267;-73
2021/04/13 00:25:07;;;;;;;5.25;1.00;;;4.40;86.50;;;;;;5009770;28;20017;-73
2021/04/13 00:27:32;;;;;;;7.35;1.25;;;4.40;86.60;;;;;;5009655;28;20028;-73
2021/04/13 00:30:15;;;;;;;5.05;1.23;;;4.40;86.70;;;;;;5026389;28;20014;-74
2021/04/13 00:32:59;;;;;;;6.65;1.83;;;4.50;86.90;;;;;;5027999;28;20077;-73
2021/04/13 00:35:32;;;;;;;6.20;1.20;;;4.50;86.20;;;;;;5024278;28;20006;-73
2021/04/13 00:38:32;;;;;;;5.03;1.23;;;4.60;86.40;;;;;;5011822;28;20010;-73
2021/04/13 00:41:12;;;;;;;6.45;1.20;;;4.60;86.30;;;;;;4977093;28;20033;-73
2021/04/13 00:43:42;;;;;;;8.07;1.77;;;4.60;86.60;;;;;;5022887;28;20013;-73
2021/04/13 00:46:08;;;;;;;4.07;0.90;;;4.60;86.70;;;;;;5032877;28;20076;-73
2021/04/13 00:48:35;;;;;;;7.78;1.98;;;4.60;87.40;;;;;;5015958;28;20219;-73
2021/04/13 00:51:14;;;;;;;5.78;1.45;;;4.50;87.50;;;;;;5001442;28;20018;-73
2021/04/13 00:53:39;;;;;;;4.63;1.30;;;4.50;88.00;;;;;;5033627;28;20080;-74
2021/04/13 00:56:08;;;;;;;6.90;0.93;;;4.50;88.30;;;;;;5032992;28;20080;-74
2021/04/13 00:59:01;;;;;;;6.40;1.15;;;4.50;88.90;;;;;;5018154;28;20105;-73
2021/04/13 01:01:33;;;;;;;4.93;1.08;;;4.50;88.50;;;;;;4990665;28;20025;-74
2021/04/13 01:04:03;;;;;;;6.72;1.20;;;4.50;89.20;;;;;;4997845;28;20014;-74
2021/04/13 01:06:30;;;;;;;7.18;1.10;;;4.50;89.20;;;;;;5046055;28;20028;-74
2021/04/13 01:09:23;;;;;;;6.30;1.17;;;4.50;89.00;;;;;;5024411;28;20014;-73
2021/04/13 01:11:56;;;;;;;8.30;1.55;;;4.60;89.30;;;;;;5025958;28;20018;-74
2021/04/13 01:14:24;;;;;;;4.80;1.08;;;4.60;88.80;;;;;;5029395;28;20323;-74
2021/04/13 01:16:55;;;;;;;6.65;1.13;;;4.70;88.60;;;;;;5032958;28;20073;-74
2021/04/13 01:19:33;;;;;;;10.43;1.25;;;4.70;88.20;;;;;;5032794;28;20009;-74
2021/04/13 01:22:11;;;;;;;8.25;1.38;;;4.60;88.80;;;;;;5049769;28;20041;-74
2021/04/13 01:24:38;;;;;;;5.30;1.42;;;4.60;89.10;;;;;;5017796;28;20295;-74
2021/04/13 01:27:08;;;;;;;6.28;1.48;;;4.60;89.00;;;;;;5016108;28;20032;-74
2021/04/13 01:29:34;;;;;;;5.35;1.30;;;4.50;88.70;;;;;;4999337;28;20037;-73
2021/04/13 01:32:00;;;;;;;4.88;0.93;;;4.50;89.20;;;;;;4998938;28;20016;-74
2021/04/13 01:34:37;;;;;;;5.85;1.00;;;4.50;89.20;;;;;;4999541;28;20024;-74
2021/04/13 01:37:18;;;;;;;7.53;1.50;;;4.50;88.70;;;;;;5018684;28;20031;-73
2021/04/13 01:39:50;;;;;;;6.90;1.30;;;4.50;88.90;;;;;;5000382;28;20024;-73
2021/04/13 01:42:16;;;;;;;7.45;1.27;;;4.60;89.30;;;;;;5016615;28;20192;-75
2021/04/13 01:44:45;;;;;;;6.72;1.40;;;4.60;89.20;;;;;;5015909;28;20024;-73
2021/04/13 01:47:12;;;;;;;10.18;1.73;;;4.60;89.10;;;;;;5014618;28;20045;-73
2021/04/13 01:49:43;;;;;;;8.57;1.58;;;4.60;89.10;;;;;;5012120;28;20350;-75
2021/04/13 01:52:22;;;;;;;9.27;1.52;;;4.60;89.60;;;;;;5027903;28;20017;-75
2021/04/13 01:54:48;;;;;;;5.80;1.50;;;4.60;90.00;;;;;;5044571;28;20002;-75
2021/04/13 01:57:30;;;;;;;8.88;1.48;;;4.50;90.20;;;;;;5005277;28;20033;-74
2021/04/13 02:00:03;;;;;;;8.68;1.55;;;4.50;90.20;;;;;;5015540;28;20020;-74
2021/04/13 02:02:31;;;;;;;5.45;1.38;;;4.50;90.10;;;;;;5011301;28;20018;-74
2021/04/13 02:05:01;;;;;;;8.35;1.75;;;4.60;90.40;;;;;;5045142;28;20016;-74
2021/04/13 02:10:23;;;;;;;9.35;1.75;;;4.60;90.00;;;;;;5030828;28;20017;-74
2021/04/13 02:12:50;;;;;;;6.82;1.38;;;4.60;89.80;;;;;;5032116;28;20020;-74
2021/04/13 02:15:29;;;;;;;11.15;2.13;;;4.60;90.00;;;;;;5012699;28;20297;-74
2021/04/13 02:17:59;;;;;;;5.72;1.42;;;4.60;90.10;;;;;;5024918;28;20014;-74
2021/04/13 02:20:31;;;;;;;8.60;1.90;;;4.60;90.00;;;;;;5038495;28;20025;-74
2021/04/13 02:22:57;;;;;;;7.03;1.50;;;4.60;90.10;;;;;;5017142;28;20005;-74
2021/04/13 02:25:26;;;;;;;8.48;1.95;;;4.60;90.00;;;;;;5018368;28;20023;-74
2021/04/13 02:27:52;;;;;;;8.13;1.95;;;4.60;89.80;;;;;;5039423;28;20029;-74
2021/04/13 02:30:28;;;;;;;9.20;1.73;;;4.60;90.30;;;;;;5039529;28;20025;-75
2021/04/13 02:32:54;;;;;;;6.80;1.50;;;4.50;90.30;;;;;;5017587;28;20048;-74
2021/04/13 02:35:27;;;;;;;7.70;1.33;;;4.50;90.80;;;;;;5011317;28;20207;-75
2021/04/13 02:37:56;;;;;;;7.50;1.80;;;4.40;90.80;;;;;;5012555;28;20085;-74
2021/04/13 02:40:41;;;;;;;10.75;1.98;;;4.40;90.80;;;;;;5033861;28;20013;-74
2021/04/13 02:43:15;;;;;;;8.68;1.88;;;4.30;91.20;;;;;;5048018;28;20009;-74
2021/04/13 02:45:44;;;;;;;9.63;2.17;;;4.30;91.10;;;;;;5030031;28;20017;-75
2021/04/13 02:48:14;;;;;;;8.85;1.95;;;4.30;91.10;;;;;;5030343;28;20025;-74
2021/04/13 02:50:43;;;;;;;11.52;2.00;;;4.30;91.30;;;;;;5030454;28;20005;-74
2021/04/13 02:53:08;;;;;;;9.88;2.10;;;4.30;91.30;;;;;;5030135;28;20072;-74
2021/04/13 02:55:36;;;;;;;8.93;1.95;;;4.30;91.20;;;;;;5030367;28;20048;-74
2021/04/13 02:58:04;;;;;;;8.38;1.98;;;4.30;91.10;;;;;;5013336;28;20251;-74
2021/04/13 03:00:41;;;;;;;9.20;2.47;;;4.40;91.20;;;;;;5013693;28;20005;-74
2021/04/13 03:03:09;;;;;;;8.55;1.63;;;4.30;90.90;;;;;;5013848;28;20068;-74
2021/04/13 03:05:35;;;;;;;11.23;2.20;;;4.40;91.10;;;;;;5013466;28;20040;-75
2021/04/13 03:08:11;;;;;;;8.60;2.10;;;4.30;91.50;;;;;;5047046;28;20025;-73
2021/04/13 03:10:39;;;;;;;12.98;2.20;;;4.30;91.90;;;;;;5029848;28;20047;-74
2021/04/13 03:13:15;;;;;;;9.77;2.08;;;4.30;91.80;;;;;;4994520;28;20010;-74
2021/04/13 03:15:42;;;;;;;7.60;1.83;;;4.40;92.00;;;;;;5029788;28;20018;-74
2021/04/13 03:18:13;;;;;;;8.75;2.15;;;4.40;91.90;;;;;;5012672;28;20040;-73
2021/04/13 03:20:42;;;;;;;9.95;1.70;;;4.40;91.70;;;;;;5029816;28;20052;-74
2021/04/13 03:23:08;;;;;;;10.18;2.38;;;4.40;91.60;;;;;;5013547;28;20196;-74
2021/04/13 03:25:36;;;;;;;12.55;2.67;;;4.40;91.30;;;;;;5028434;28;20024;-73
2021/04/13 03:28:04;;;;;;;8.40;2.05;;;4.40;91.40;;;;;;5011727;28;20025;-74
2021/04/13 03:30:32;;;;;;;15.82;2.80;;;4.40;91.50;;;;;;4996488;28;20010;-74
2021/04/13 03:33:04;;;;;;;8.38;1.77;;;4.30;91.40;;;;;;4996933;28;20019;-74
2021/04/13 03:35:30;;;;;;;7.10;1.52;;;4.30;91.60;;;;;;5013273;28;20014;-74
2021/04/13 03:37:57;;;;;;;9.65;2.40;;;4.20;91.90;;;;;;5013271;28;20228;-74
2021/04/13 03:40:25;;;;;;;9.15;1.92;;;4.20;91.90;;;;;;4992950;28;20223;-73
2021/04/13 03:42:54;;;;;;;14.07;2.53;;;4.20;91.90;;;;;;5026059;28;20084;-73
2021/04/13 03:45:19;;;;;;;9.77;2.20;;;4.20;91.90;;;;;;5027858;28;20031;-73
2021/04/13 03:47:45;;;;;;;10.93;2.33;;;4.20;91.90;;;;;;5029628;28;20365;-74
2021/04/13 03:50:18;;;;;;;11.10;1.50;;;4.20;91.90;;;;;;5030172;28;20020;-74
2021/04/13 03:52:44;;;;;;;9.90;2.33;;;4.20;91.90;;;;;;5031644;28;20013;-73
2021/04/13 03:55:22;;;;;;;10.35;2.08;;;4.20;91.80;;;;;;5028902;28;20306;-73
2021/04/13 03:57:48;;;;;;;10.82;1.70;;;4.30;91.70;;;;;;4991799;28;20251;-73
2021/04/13 04:00:16;;;;;;;10.02;2.30;;;4.30;91.70;;;;;;5029187;28;20021;-73
2021/04/13 04:02:42;;;;;;;8.88;1.80;;;4.30;92.20;;;;;;5027725;28;20135;-74
2021/04/13 04:05:13;;;;;;;11.35;1.98;;;4.30;91.90;;;;;;5025043;28;20227;-73
2021/04/13 04:07:46;;;;;;;15.52;3.13;;;4.30;91.90;;;;;;5044268;28;20017;-73
2021/04/13 04:10:32;;;;;;;8.80;1.90;;;4.30;92.10;;;;;;5012971;28;20049;-74
2021/04/13 04:13:06;;;;;;;10.30;1.92;;;4.30;91.90;;;;;;5008876;28;20032;-74
2021/04/13 04:15:40;;;;;;;13.15;2.22;;;4.30;92.00;;;;;;5027745;28;20075;-74
2021/04/13 04:18:12;;;;;;;11.55;1.85;;;4.30;92.00;;;;;;5012907;28;20311;-74
2021/04/13 04:20:38;;;;;;;12.20;2.20;;;4.40;92.00;;;;;;5015300;28;20016;-74
2021/04/13 04:23:04;;;;;;;12.70;2.30;;;4.40;92.00;;;;;;5032229;28;20022;-74
2021/04/13 04:25:39;;;;;;;15.05;2.97;;;4.50;92.00;;;;;;5031859;28;20214;-74
2021/04/13 04:28:11;;;;;;;12.90;3.05;;;4.50;91.70;;;;;;5014173;28;20018;-74
2021/04/13 04:30:37;;;;;;;15.68;2.70;;;4.50;91.60;;;;;;5031333;28;20006;-73
2021/04/13 04:33:03;;;;;;;14.45;2.40;;;4.60;91.70;;;;;;5015403;28;20089;-74
2021/04/13 04:35:39;;;;;;;12.38;2.13;;;4.60;91.60;;;;;;5013237;28;20010;-74
2021/04/13 04:38:05;;;;;;;14.65;2.40;;;4.60;91.50;;;;;;5029393;28;20089;-74
2021/04/13 04:40:31;;;;;;;10.85;2.22;;;4.70;91.30;;;;;;5050228;28;20017;-74
2021/04/13 04:43:01;;;;;;;14.73;2.88;;;4.70;91.30;;;;;;5049747;28;20028;-74
2021/04/13 04:45:42;;;;;;;11.45;2.53;;;4.70;91.20;;;;;;4997547;28;20014;-74
2021/04/13 04:48:28;;;;;;;15.65;3.10;;;4.80;91.20;;;;;;5031833;28;20038;-74
2021/04/13 04:50:56;;;;;;;15.43;2.88;;;4.80;91.30;;;;;;5050849;28;20020;-74
2021/04/13 04:53:22;;;;;;;12.40;2.25;;;4.80;91.20;;;;;;5033064;28;20061;-74
2021/04/13 04:55:49;;;;;;;18.80;3.05;;;4.80;91.20;;;;;;5013105;28;20049;-74
2021/04/13 04:58:15;;;;;;;14.25;3.03;;;4.80;91.50;;;;;;5029838;28;20024;-74
2021/04/13 05:00:40;;;;;;;14.93;2.78;;;4.80;91.10;;;;;;5029681;28;20017;-73
2021/04/13 05:03:06;;;;;;;18.45;2.83;;;4.80;91.10;;;;;;5030582;28;20021;-73
2021/04/13 05:05:31;;;;;;;18.75;3.22;;;4.80;90.90;;;;;;5010369;28;20017;-73
2021/04/13 05:07:57;;;;;;;16.15;2.70;;;4.80;91.00;;;;;;5001704;28;20025;-73
2021/04/13 05:10:23;;;;;;;24.65;4.20;;;4.80;91.10;;;;;;5030191;28;20022;-74
2021/04/13 05:12:48;;;;;;;13.70;3.25;;;4.90;91.00;;;;;;5030291;28;20017;-74
2021/04/13 05:15:14;;;;;;;13.38;2.30;;;4.90;91.00;;;;;;5012499;28;20078;-74
2021/04/13 05:17:40;;;;;;;12.40;2.45;;;4.90;91.10;;;;;;5013751;28;20025;-73
2021/04/13 05:20:06;;;;;;;17.77;2.42;;;5.00;91.00;;;;;;5030844;28;20022;-74
2021/04/13 05:22:32;;;;;;;12.23;2.50;;;5.00;91.00;;;;;;5012470;28;20018;-73
2021/04/13 05:24:57;;;;;;;14.20;2.92;;;5.00;91.00;;;;;;5013572;28;20033;-74
2021/04/13 05:27:23;;;;;;;16.35;2.90;;;5.10;91.10;;;;;;5030287;28;20041;-73
2021/04/13 05:29:48;;;;;;;14.07;2.50;;;5.10;90.90;;;;;;5013738;28;20006;-74
2021/04/13 05:32:14;;;;;;;20.27;3.65;;;5.20;90.80;;;;;;5011882;28;20022;-74
2021/04/13 05:34:40;;;;;;;14.95;2.72;;;5.10;90.50;;;;;;5023052;28;20509;-74
2021/04/13 05:37:05;;;;;;;13.13;2.50;;;5.10;90.70;;;;;;5028171;28;20014;-74
2021/04/13 05:39:31;;;;;;;18.05;3.47;;;5.10;90.80;;;;;;5026440;28;20022;-74
2021/04/13 05:41:56;;;;;;;16.08;2.75;;;5.10;90.90;;;;;;5027058;28;20017;-74
2021/04/13 05:44:22;;;;;;;16.60;3.28;;;5.20;90.90;;;;;;5009433;28;20042;-74
2021/04/13 05:46:49;;;;;;;18.42;2.95;;;5.20;90.90;;;;;;5046896;28;20235;-74
2021/04/13 05:49:14;;;;;;;17.38;3.65;;;5.20;90.80;;;;;;5006469;28;20014;-74
2021/04/13 05:51:40;;;;;;;24.40;4.05;;;5.20;90.90;;;;;;5023802;28;20049;-74
2021/04/13 05:54:05;;;;;;;17.02;3.15;;;5.20;91.00;;;;;;5024771;28;20188;-74
2021/04/13 05:56:33;;;;;;;19.80;3.40;;;5.20;91.10;;;;;;5009826;28;20042;-73
2021/04/13 05:58:59;;;;;;;24.13;3.90;;;5.20;91.00;;;;;;5027049;28;20041;-74
2021/04/13 06:01:28;;;;;;;19.10;3.38;;;5.20;91.00;;;;;;5026295;28;20014;-74
2021/04/13 06:03:54;;;;;;;21.98;4.38;;;5.20;91.20;;;;;;5018690;28;20041;-74
2021/04/13 06:06:20;;;;;;;18.35;3.40;;;5.30;90.90;;;;;;5017512;28;20104;-74
2021/04/13 06:08:46;;;;;;;16.33;3.15;;;5.30;90.90;;;;;;5005314;28;20255;-74
2021/04/13 06:11:20;;;;;;;22.23;4.28;;;5.40;90.80;;;;;;5014949;28;20045;-73
2021/04/13 06:13:47;;;;;;;21.27;3.97;;;5.40;90.50;;;;;;5015502;28;20052;-76
2021/04/13 06:16:14;;;;;;;18.15;3.22;;;5.50;90.40;;;;;;4992223;28;20030;-75
2021/04/13 06:18:39;;;;;;;20.95;3.80;;;5.50;90.50;;;;;;5006934;28;20032;-74
2021/04/13 06:21:05;;;;;;;19.15;3.28;;;5.60;90.40;;;;;;5013225;28;20270;-73
2021/04/13 06:23:31;;;;;;;21.77;4.25;;;5.60;90.30;;;;;;4994702;28;20211;-75
2021/04/13 06:25:56;;;;;;;22.05;3.45;;;5.70;90.10;;;;;;5000244;28;20041;-76
2021/04/13 06:28:22;;;;;;;30.27;4.82;;;5.70;90.20;;;;;;4998331;28;20115;-74
2021/04/13 06:30:47;;;;;;;22.20;3.65;;;5.70;90.20;;;;;;4983810;28;20030;-74
2021/04/13 06:33:15;;;;;;;25.27;3.85;;;5.90;90.00;;;;;;5002794;28;20319;-72
2021/04/13 06:35:42;;;;;;;25.83;4.00;;;5.90;89.70;;;;;;5001206;28;20053;-73
2021/04/13 06:38:10;;;;;;;26.52;4.15;;;6.10;89.30;;;;;;4991003;28;21128;-75
2021/04/13 06:40:42;;;;;;;22.15;3.88;;;6.30;87.80;;;;;;4964897;28;20025;-73
2021/04/13 06:43:26;;;;;;;19.05;3.72;;;6.30;87.10;;;;;;4987182;28;20525;-73
2021/04/13 06:46:10;;;;;;;14.55;2.83;;;6.30;87.00;;;;;;4963076;28;20626;-73
2021/04/13 06:48:41;;;;;;;16.52;3.38;;;6.50;86.40;;;;;;4948454;28;20025;-73
2021/04/13 06:51:32;;;;;;;20.83;3.42;;;6.50;84.80;;;;;;4946472;28;20021;-72
2021/04/13 06:54:07;;;;;;;13.88;3.20;;;6.40;85.90;;;;;;4967754;28;20029;-72
2021/04/13 06:56:40;;;;;;;20.45;3.25;;;6.70;86.00;;;;;;4965364;28;20050;-72
2021/04/13 06:59:38;;;;;;;22.80;4.13;;;6.70;83.80;;;;;;4976060;28;20053;-72
2021/04/13 07:02:15;;;;;;;20.73;3.50;;;6.60;84.30;;;;;;4999474;28;20022;-70
2021/04/13 07:04:46;;;;;;;16.73;3.05;;;7.00;84.40;;;;;;4979492;28;20018;-71
2021/04/13 07:07:18;;;;;;;16.75;3.45;;;7.80;81.20;;;;;;4995908;28;20339;-74
2021/04/13 07:09:51;;;;;;;19.45;3.70;;;7.50;81.20;;;;;;4971772;28;20060;-77
2021/04/13 07:12:40;;;;;;;15.05;3.30;;;8.10;80.70;;;;;;4985875;28;20024;-75
2021/04/13 07:15:13;;;;;;;16.13;3.45;;;7.90;78.70;;;;;;4992202;28;20057;-71
2021/04/13 07:17:45;;;;;;;13.70;3.05;;;8.30;77.20;;;;;;4979121;28;20017;-69
2021/04/13 07:20:18;;;;;;;15.57;3.38;;;8.40;77.00;;;;;;4961735;28;22270;-72
2021/04/13 07:22:54;;;;;;;16.80;3.72;;;9.00;76.00;;;;;;4951335;28;20032;-71
2021/04/13 07:25:24;;;;;;;10.90;2.38;;;9.10;73.70;;;;;;4974855;28;20049;-70
2021/04/13 07:27:55;;;;;;;17.05;3.15;;;9.30;72.60;;;;;;4974267;28;20483;-73
2021/04/13 07:30:25;;;;;;;12.63;3.00;;;8.90;71.90;;;;;;4942075;28;20476;-71
2021/04/13 07:32:53;;;;;;;14.30;3.22;;;8.50;74.10;;;;;;4962770;28;20061;-70
2021/04/13 07:35:19;;;;;;;14.57;3.55;;;8.10;75.40;;;;;;4990068;28;20345;-70
2021/04/13 07:37:46;;;;;;;13.18;3.03;;;8.60;74.10;;;;;;4965016;28;20063;-72
2021/04/13 07:40:22;;;;;;;14.30;3.15;;;8.80;72.90;;;;;;4955001;28;20689;-72
2021/04/13 07:42:52;;;;;;;16.67;4.03;;;8.20;75.20;;;;;;4978384;28;20097;-71
2021/04/13 07:45:21;;;;;;;13.63;3.03;;;7.70;74.90;;;;;;4949838;28;20101;-73
2021/04/13 07:48:20;;;;;;;13.60;3.13;;;8.20;77.50;;;;;;4962834;28;20444;-72
2021/04/13 07:51:05;;;;;;;14.23;2.55;;;9.40;72.50;;;;;;4951227;28;20014;-74
2021/04/13 07:53:43;;;;;;;15.45;2.95;;;9.90;69.90;;;;;;4947983;28;20022;-70
2021/04/13 07:56:34;;;;;;;12.75;3.08;;;10.60;64.70;;;;;;4962782;28;20919;-71
2021/04/13 07:59:13;;;;;;;13.93;3.17;;;10.50;64.00;;;;;;4922373;28;20572;-74
2021/04/13 08:01:39;;;;;;;12.38;2.97;;;9.70;64.90;;;;;;4925576;28;21445;-73
2021/04/13 08:04:05;;;;;;;10.80;2.78;;;9.10;66.60;;;;;;4879940;28;20498;-75
2021/04/13 08:06:32;;;;;;;16.23;3.17;;;9.00;69.60;;;;;;4909509;28;20473;-75
2021/04/13 08:09:25;;;;;;;14.05;2.90;;;9.60;70.60;;;;;;4938092;28;20037;-72
2021/04/13 08:12:17;;;;;;;13.57;2.65;;;9.20;65.30;;;;;;4941514;28;20022;-72
2021/04/13 08:14:53;;;;;;;12.55;2.78;;;9.80;65.50;;;;;;4900050;28;20343;-72
2021/04/13 08:17:23;;;;;;;13.30;3.00;;;10.00;63.50;;;;;;4934935;28;20263;-77
2021/04/13 08:20:04;;;;;;;10.40;2.55;;;10.60;62.50;;;;;;4941262;28;20017;-80
2021/04/13 08:22:46;;;;;;;14.18;3.10;;;11.30;59.60;;;;;;4943109;28;20026;-79
2021/04/13 08:25:12;;;;;;;11.73;2.83;;;11.50;59.40;;;;;;4957957;28;20040;-80
2021/04/13 08:27:44;;;;;;;14.75;2.90;;;10.40;61.40;;;;;;4944732;28;20041;-81
2021/04/13 08:30:47;;;;;;;11.27;2.67;;;10.90;63.00;;;;;;4933898;28;20343;-78
2021/04/13 08:33:23;;;;;;;13.07;2.35;;;11.80;59.40;;;;;;4954225;28;20013;-79
2021/04/13 08:36:06;;;;;;;10.70;2.80;;;12.00;57.90;;;;;;4952695;28;20056;-80
2021/04/13 08:38:32;;;;;;;14.25;3.03;;;12.40;57.20;;;;;;4970331;28;20017;-79
2021/04/13 08:41:10;;;;;;;8.98;3.13;;;12.70;55.40;;;;;;4970372;28;20070;-79
2021/04/13 08:43:55;;;;;;;15.43;3.03;;;13.40;54.60;;;;;;4964831;28;20367;-78
2021/04/13 08:46:35;;;;;;;11.68;3.35;;;13.80;53.20;;;;;;4930634;28;20026;-78
2021/04/13 08:49:04;;;;;;;18.67;3.50;;;12.20;53.90;;;;;;4934653;28;20036;-71
2021/04/13 08:51:43;;;;;;;12.50;3.53;;;10.20;57.80;;;;;;4970450;28;20017;-74
2021/04/13 08:54:18;;;;;;;13.52;3.90;;;9.40;62.10;;;;;;4963726;28;20419;-72
2021/04/13 08:57:05;;;;;;;12.48;3.60;;;9.10;65.80;;;;;;4913462;28;20593;-72
2021/04/13 08:59:35;;;;;;;10.00;3.40;;;8.90;65.80;;;;;;4908874;28;20037;-72
2021/04/13 09:02:28;;;;;;;9.13;2.67;;;8.80;66.70;;;;;;4915915;28;20100;-72
2021/04/13 09:05:24;;;;;;;14.60;2.80;;;8.90;66.40;;;;;;4935165;28;20026;-73
2021/04/13 09:08:04;;;;;;;10.52;2.55;;;8.90;66.50;;;;;;4914566;28;20144;-72
2021/04/13 09:10:37;;;;;;;15.82;3.40;;;8.70;67.60;;;;;;4933144;28;20602;-73
2021/04/13 09:13:28;;;;;;;10.18;2.40;;;8.50;69.40;;;;;;4937339;28;20354;-74
2021/04/13 09:16:05;;;;;;;19.30;3.83;;;8.40;69.20;;;;;;4925219;28;20024;-72
2021/04/13 09:18:52;;;;;;;15.85;3.83;;;8.10;70.60;;;;;;4954542;28;20699;-72
2021/04/13 09:21:25;;;;;;;12.80;3.40;;;7.80;73.10;;;;;;4954520;28;20049;-73
2021/04/13 09:24:09;;;;;;;12.25;3.80;;;7.40;75.90;;;;;;4947150;28;20092;-72
2021/04/13 09:27:04;;;;;;;12.57;3.28;;;7.10;76.40;;;;;;4976485;28;20072;-74
2021/04/13 09:29:41;;;;;;;9.60;2.92;;;7.10;80.10;;;;;;4954229;28;20069;-71
2021/04/13 09:32:27;;;;;;;10.27;2.50;;;7.20;80.00;;;;;;4964169;28;21051;-70
2021/04/13 09:35:36;;;;;;;9.20;2.40;;;7.80;80.10;;;;;;4987174;28;20022;-77
2021/04/13 09:38:39;;;;;;;12.45;2.80;;;8.60;77.60;;;;;;4979554;28;20390;-77
2021/04/13 09:41:29;;;;;;;12.43;3.17;;;8.80;76.00;;;;;;4988245;28;20251;-76
2021/04/13 09:44:14;;;;;;;13.95;3.10;;;8.90;71.20;;;;;;4972748;28;20433;-77
2021/04/13 09:46:54;;;;;;;20.38;4.25;;;8.90;70.10;;;;;;4939311;28;20010;-73
2021/04/13 09:49:58;;;;;;;11.88;2.97;;;8.70;70.80;;;;;;4946530;28;20255;-76
2021/04/13 09:52:38;;;;;;;14.23;3.00;;;8.60;72.70;;;;;;4984535;28;20033;-74
2021/04/13 09:55:15;;;;;;;17.35;3.67;;;8.20;74.70;;;;;;4987041;28;20330;-74
2021/04/13 09:57:53;;;;;;;16.73;3.40;;;7.40;77.50;;;;;;4958688;28;20037;-74
2021/04/13 10:00:28;;;;;;;12.95;3.25;;;6.80;80.10;;;;;;4969502;28;20495;-75
2021/04/13 10:03:25;;;;;;;8.02;2.75;;;6.60;80.20;;;;;;5001751;28;20134;-74
2021/04/13 10:05:51;;;;;;;5.85;1.88;;;6.70;78.50;;;;;;4984218;28;20339;-74
2021/04/13 10:08:25;;;;;;;5.07;1.80;;;7.00;77.10;;;;;;4923269;28;20201;-76
2021/04/13 10:11:29;;;;;;;5.40;2.20;;;7.20;75.50;;;;;;4928461;28;20302;-76
2021/04/13 10:14:05;;;;;;;5.88;2.30;;;8.90;76.00;;;;;;4901199;28;21002;-75
2021/04/13 10:16:49;;;;;;;8.65;2.20;;;10.30;70.00;;;;;;4939258;28;20201;-74
2021/04/13 10:19:18;;;;;;;15.30;4.57;;;10.70;67.90;;;;;;4945290;28;20231;-76
2021/04/13 10:22:22;;;;;;;10.05;2.88;;;9.90;69.00;;;;;;4936857;28;20933;-78
2021/04/13 10:25:05;;;;;;;4.95;1.67;;;9.40;71.70;;;;;;4946104;28;20596;-77
2021/04/13 10:27:57;;;;;;;5.13;1.40;;;8.60;73.40;;;;;;4918868;28;20317;-74
2021/04/13 10:30:38;;;;;;;6.60;1.73;;;8.10;76.30;;;;;;4916929;28;20309;-78
2021/04/13 10:33:28;;;;;;;3.42;1.42;;;8.20;79.40;;;;;;4924439;28;20129;-79
2021/04/13 10:36:13;;;;;;;4.25;1.02;;;9.90;78.50;;;;;;4910199;28;20705;-76
2021/04/13 10:39:04;;;;;;;2.47;1.00;;;11.80;75.10;;;;;;4913579;28;20370;-79
2021/04/13 10:41:39;;;;;;;5.53;1.27;;;12.60;69.10;;;;;;4937839;28;20026;-82
2021/04/13 10:44:44;;;;;;;9.57;1.77;;;11.60;63.20;;;;;;4926935;28;20017;-79
2021/04/13 10:47:28;;;;;;;6.47;1.80;;;10.10;68.00;;;;;;4911346;28;20341;-77
2021/04/13 10:50:16;;;;;;;4.50;1.23;;;9.10;71.40;;;;;;4926259;28;20701;-77
2021/04/13 10:52:46;;;;;;;4.32;1.17;;;10.10;71.60;;;;;;4942483;28;20168;-78
2021/04/13 10:55:18;;;;;;;4.15;1.27;;;11.40;68.70;;;;;;4956162;28;20154;-81
2021/04/13 10:58:20;;;;;;;4.85;1.25;;;12.10;66.00;;;;;;4939676;28;20029;-81
2021/04/13 11:01:22;;;;;;;3.72;1.20;;;12.30;65.50;;;;;;4956122;28;20764;-81
2021/04/13 11:03:59;;;;;;;6.85;1.40;;;11.80;63.70;;;;;;4871985;28;20276;-79
2021/04/13 11:06:34;;;;;;;4.07;1.27;;;11.00;65.10;;;;;;4930712;28;20041;-77
2021/04/13 11:09:27;;;;;;;4.38;1.30;;;9.90;68.10;;;;;;4928679;28;20430;-78
2021/04/13 11:12:05;;;;;;;4.60;1.23;;;9.30;70.90;;;;;;4924400;28;20287;-82
2021/04/13 11:14:40;;;;;;;5.80;1.42;;;9.00;72.00;;;;;;4931200;28;20024;-79
2021/04/13 11:17:24;;;;;;;5.55;1.40;;;8.60;73.40;;;;;;4913656;28;20022;-80
2021/04/13 11:20:24;;;;;;;5.05;1.15;;;8.60;74.30;;;;;;4946070;28;20580;-78
2021/04/13 11:23:15;;;;;;;8.30;1.80;;;9.00;74.30;;;;;;4924475;28;20328;-78
2021/04/13 11:26:18;;;;;;;4.82;1.73;;;8.80;72.50;;;;;;4930947;28;20316;-77
2021/04/13 11:29:11;;;;;;;7.53;1.50;;;8.60;73.90;;;;;;4923969;28;20284;-77
2021/04/13 11:31:51;;;;;;;7.13;1.58;;;8.40;74.70;;;;;;4933807;28;20415;-77
2021/04/13 11:34:40;;;;;;;9.77;1.70;;;8.40;74.60;;;;;;4940224;28;20013;-80
2021/04/13 11:37:44;;;;;;;10.32;1.92;;;8.70;73.50;;;;;;4922872;28;20284;-79
2021/04/13 11:40:11;;;;;;;6.60;1.58;;;8.60;71.40;;;;;;4940518;28;20071;-78
2021/04/13 11:42:39;;;;;;;4.70;1.48;;;8.50;72.30;;;;;;4934909;28;20064;-76
2021/04/13 11:45:32;;;;;;;5.13;1.42;;;8.60;72.10;;;;;;4922406;28;20448;-75
2021/04/13 11:48:03;;;;;;;8.43;1.80;;;8.60;74.00;;;;;;4907695;28;20331;-75
2021/04/13 11:50:56;;;;;;;6.35;1.40;;;8.80;74.10;;;;;;4948565;28;20297;-77
2021/04/13 11:53:31;;;;;;;10.13;2.13;;;9.20;73.20;;;;;;4932048;28;20041;-74
2021/04/13 11:55:56;;;;;;;7.45;2.03;;;9.20;69.50;;;;;;4928030;28;20046;-77
2021/04/13 11:58:33;;;;;;;8.45;1.80;;;8.80;71.10;;;;;;4929484;28;20030;-73
2021/04/13 12:01:16;;;;;;;7.45;1.70;;;8.60;72.80;;;;;;4947378;28;20022;-73
2021/04/13 12:04:03;;;;;;;8.38;1.50;;;8.20;74.20;;;;;;4954099;28;20092;-74
2021/04/13 12:06:58;;;;;;;4.93;1.55;;;8.10;75.30;;;;;;4964386;28;20098;-74
2021/04/13 12:10:02;;;;;;;6.80;1.50;;;8.10;75.50;;;;;;4995511;28;20049;-74
2021/04/13 12:12:33;;;;;;;5.53;1.63;;;8.40;75.60;;;;;;4950100;28;20186;-75
2021/04/13 12:15:02;;;;;;;6.88;1.50;;;8.50;73.50;;;;;;4948307;28;20014;-75
2021/04/13 12:17:40;;;;;;;5.30;1.38;;;8.30;73.20;;;;;;4952610;28;20027;-75
2021/04/13 12:20:34;;;;;;;6.05;1.60;;;8.10;73.10;;;;;;4977492;28;20041;-73
2021/04/13 12:23:05;;;;;;;5.25;1.00;;;8.00;74.20;;;;;;4972667;28;20018;-73
2021/04/13 12:25:50;;;;;;;4.20;1.30;;;8.10;76.10;;;;;;4984711;28;20036;-72
2021/04/13 12:28:32;;;;;;;3.15;0.80;;;7.90;78.20;;;;;;4985589;28;20045;-73
2021/04/13 12:31:25;;;;;;;2.88;0.98;;;8.00;79.80;;;;;;4989717;28;20316;-72
2021/04/13 12:33:54;;;;;;;3.17;0.98;;;7.80;79.80;;;;;;4976825;28;20029;-74
2021/04/13 12:36:59;;;;;;;4.00;0.90;;;8.00;81.70;;;;;;4983811;28;20018;-72
2021/04/13 12:39:59;;;;;;;2.47;0.60;;;8.10;79.60;;;;;;4919993;28;20045;-72
2021/04/13 12:42:26;;;;;;;3.15;0.82;;;8.10;80.60;;;;;;4921660;28;20023;-72
2021/04/13 12:45:20;;;;;;;2.53;0.80;;;7.90;76.70;;;;;;4927241;28;20042;-72
2021/04/13 12:47:47;;;;;;;1.95;0.50;;;7.60;76.50;;;;;;4941377;28;20039;-73
2021/04/13 12:50:29;;;;;;;3.25;0.75;;;7.50;76.00;;;;;;4931185;28;20555;-72
2021/04/13 12:52:55;;;;;;;2.95;0.70;;;7.30;77.10;;;;;;4929506;29;20034;-73
2021/04/13 12:55:22;;;;;;;1.75;0.60;;;7.50;76.50;;;;;;4924523;28;20142;-72
2021/04/13 12:58:09;;;;;;;0.30;0.30;;;8.00;76.60;;;;;;4924781;28;20031;-73
2021/04/13 13:00:37;;;;;;;1.30;0.40;;;8.60;75.00;;;;;;4918219;28;20015;-72
2021/04/13 13:03:32;;;;;;;0.98;0.43;;;8.90;71.60;;;;;;4909069;28;21357;-73
2021/04/13 13:05:58;;;;;;;1.85;0.43;;;8.90;70.00;;;;;;4921748;28;20110;-73
2021/04/13 13:08:29;;;;;;;0.90;0.30;;;9.10;72.00;;;;;;4910259;28;20062;-73
2021/04/13 13:10:57;;;;;;;2.53;0.50;;;9.10;71.90;;;;;;4963408;28;20026;-72
2021/04/13 13:13:28;;;;;;;1.08;0.35;;;8.90;70.90;;;;;;4971429;28;20136;-72
2021/04/13 13:15:55;;;;;;;0.70;0.20;;;8.80;68.50;;;;;;4984915;28;20117;-72
2021/04/13 13:18:29;;;;;;;1.55;0.50;;;8.90;70.60;;;;;;5012294;28;20025;-73
2021/04/13 13:21:06;;;;;;;0.93;0.32;;;9.20;68.30;;;;;;4988638;28;20029;-72
2021/04/13 13:23:37;;;;;;;0.38;0.30;;;9.40;66.60;;;;;;4996412;28;20045;-72
2021/04/13 13:26:22;;;;;;;1.10;0.40;;;9.00;64.90;;;;;;4997276;28;20014;-72
2021/04/13 13:28:48;;;;;;;0.90;0.47;;;8.60;66.20;;;;;;5015181;28;20026;-73
2021/04/13 13:31:26;;;;;;;2.92;0.50;;;8.40;66.80;;;;;;5015589;28;20025;-72
2021/04/13 13:34:12;;;;;;;0.50;0.40;;;8.30;68.00;;;;;;5015434;28;20259;-72
2021/04/13 13:36:38;;;;;;;2.22;0.40;;;8.40;68.60;;;;;;5000703;28;20312;-74